Time;durP1;ratioP1;P1;durP2;ratioP2;P2;SDS_P1;SDS_P2;PMS_P1;PMS_P2;Temp;Humidity;BMP_temperature;BMP_pressure;BME280_temperature;BME280_humidity;BME280_pressure;Samples;Min_cycle;Max_cycle;Signal;HPM_P1;HPM_P2
2021/10/04 00:00:34;;;;;;;154.67;141.03;;;13.40;99.90;;;;;;5060460;28;20202;-83
2021/10/04 00:03:00;;;;;;;139.60;127.07;;;13.30;99.90;;;;;;5060578;28;20255;-83
2021/10/04 00:05:26;;;;;;;240.10;222.87;;;13.30;99.90;;;;;;5043397;28;20485;-83
2021/10/04 00:07:52;;;;;;;207.20;191.70;;;13.20;99.90;;;;;;5060774;28;20191;-83
2021/10/04 00:10:21;;;;;;;209.53;193.60;;;13.20;99.90;;;;;;5042272;28;20457;-83
2021/10/04 00:12:47;;;;;;;272.63;254.23;;;13.30;99.90;;;;;;5060177;28;20430;-83
2021/10/04 00:15:17;;;;;;;264.10;246.40;;;13.20;99.90;;;;;;5060411;28;20434;-83
2021/10/04 00:17:43;;;;;;;319.17;299.10;;;13.30;99.90;;;;;;5060088;28;20919;-83
2021/10/04 00:20:12;;;;;;;241.97;224.80;;;13.20;99.90;;;;;;5060966;28;20495;-83
2021/10/04 00:22:38;;;;;;;182.27;167.83;;;13.30;99.90;;;;;;5042399;28;20465;-83
2021/10/04 00:25:05;;;;;;;153.20;140.17;;;13.40;99.90;;;;;;5060842;28;20496;-83
2021/10/04 00:27:31;;;;;;;201.93;186.97;;;13.40;99.90;;;;;;5061333;28;20445;-83
2021/10/04 00:29:57;;;;;;;139.13;126.83;;;13.30;99.90;;;;;;5060318;28;20426;-82
2021/10/04 00:32:23;;;;;;;117.23;105.40;;;13.40;99.90;;;;;;5060084;28;20192;-84
2021/10/04 00:34:49;;;;;;;121.67;109.83;;;13.40;99.90;;;;;;5060173;28;20817;-83
2021/10/04 00:37:15;;;;;;;151.17;138.20;;;13.40;99.90;;;;;;5042592;28;20457;-83
2021/10/04 00:39:41;;;;;;;183.80;169.70;;;13.30;99.90;;;;;;5043073;28;20168;-83
2021/10/04 00:42:06;;;;;;;167.90;154.37;;;13.20;99.90;;;;;;5061738;28;20206;-84
2021/10/04 00:44:32;;;;;;;162.43;149.13;;;13.20;99.90;;;;;;5063087;28;20255;-83
2021/10/04 00:46:58;;;;;;;118.77;107.20;;;13.20;99.90;;;;;;5060371;28;20652;-83
2021/10/04 00:49:24;;;;;;;117.57;106.00;;;13.30;99.90;;;;;;5061313;28;20212;-83
2021/10/04 00:51:50;;;;;;;118.27;106.80;;;13.30;99.90;;;;;;5060681;28;20521;-82
2021/10/04 00:54:16;;;;;;;114.30;102.93;;;13.30;99.90;;;;;;5060629;28;20498;-82
2021/10/04 00:56:41;;;;;;;107.60;96.00;;;13.40;99.90;;;;;;5059668;28;20214;-82
2021/10/04 00:59:07;;;;;;;106.60;95.70;;;13.30;99.90;;;;;;5129289;22;20368;-84
2021/10/04 01:01:33;;;;;;;111.53;99.87;;;13.30;99.90;;;;;;5063540;28;20189;-83
2021/10/04 01:04:00;;;;;;;106.60;95.63;;;13.30;99.90;;;;;;5062577;28;20407;-82
2021/10/04 01:06:27;;;;;;;116.07;104.77;;;13.30;99.90;;;;;;5046579;28;20236;-82
2021/10/04 01:08:53;;;;;;;114.43;102.67;;;13.30;99.90;;;;;;5064054;28;20415;-82
2021/10/04 01:11:19;;;;;;;120.90;109.50;;;13.20;99.90;;;;;;5063588;28;20406;-82
2021/10/04 01:13:47;;;;;;;113.27;101.90;;;13.20;99.90;;;;;;5063938;28;20426;-82
2021/10/04 01:16:13;;;;;;;115.93;104.20;;;13.20;99.90;;;;;;5063262;28;20398;-82
2021/10/04 01:18:39;;;;;;;108.40;97.40;;;13.30;99.90;;;;;;5045625;28;20434;-82
2021/10/04 01:21:05;;;;;;;104.30;93.30;;;13.30;99.90;;;;;;5062667;28;20423;-82
2021/10/04 01:23:31;;;;;;;114.77;103.57;;;13.30;99.90;;;;;;5062535;28;20426;-81
2021/10/04 01:25:58;;;;;;;115.10;103.70;;;13.30;99.90;;;;;;5061493;28;20438;-81
2021/10/04 01:28:25;;;;;;;125.47;113.77;;;13.30;99.90;;;;;;5041436;28;20435;-82
2021/10/04 01:30:54;;;;;;;104.37;93.07;;;13.30;99.90;;;;;;5059467;28;20482;-82
2021/10/04 01:33:21;;;;;;;128.10;116.13;;;13.30;99.90;;;;;;5058928;28;20399;-81
2021/10/04 01:35:46;;;;;;;121.23;109.67;;;13.20;99.90;;;;;;5057875;28;20744;-81
2021/10/04 01:38:12;;;;;;;115.27;104.07;;;13.20;99.90;;;;;;5039560;28;20426;-81
2021/10/04 01:40:39;;;;;;;121.80;110.37;;;13.20;99.90;;;;;;5042757;28;20251;-81
2021/10/04 01:43:06;;;;;;;117.10;105.47;;;13.20;99.90;;;;;;5042852;28;20164;-81
2021/10/04 01:45:32;;;;;;;128.00;115.87;;;13.10;99.90;;;;;;5059103;28;20447;-81
2021/10/04 01:48:01;;;;;;;129.80;117.83;;;13.10;99.90;;;;;;5057901;28;20434;-81
2021/10/04 01:50:32;;;;;;;165.70;152.03;;;13.10;99.90;;;;;;5061874;28;20156;-82
2021/10/04 01:52:58;;;;;;;170.70;156.47;;;13.00;99.90;;;;;;5058953;28;20406;-82
2021/10/04 01:55:23;;;;;;;184.63;170.27;;;13.00;99.90;;;;;;5040936;28;21019;-82
2021/10/04 01:57:50;;;;;;;231.90;215.40;;;12.90;99.90;;;;;;5058527;28;20439;-82
2021/10/04 02:00:19;;;;;;;268.67;251.10;;;12.90;99.90;;;;;;5061263;28;20195;-82
2021/10/04 02:02:50;;;;;;;265.40;247.63;;;12.90;99.90;;;;;;5057984;28;20395;-81
2021/10/04 02:05:16;;;;;;;242.87;226.03;;;12.90;99.90;;;;;;5056548;28;20431;-81
2021/10/04 02:07:42;;;;;;;341.93;320.87;;;12.80;99.90;;;;;;5057933;28;20918;-82
2021/10/04 02:10:17;;;;;;;310.83;291.10;;;12.80;99.90;;;;;;5057148;28;20478;-82
2021/10/04 02:12:43;;;;;;;419.13;395.67;;;12.80;99.90;;;;;;5062043;28;20149;-82
2021/10/04 02:15:10;;;;;;;449.67;424.40;;;12.70;99.90;;;;;;5060850;28;20498;-82
2021/10/04 02:17:37;;;;;;;412.23;388.90;;;12.60;99.90;;;;;;5061514;28;20418;-82
2021/10/04 02:20:04;;;;;;;408.20;385.33;;;12.50;99.90;;;;;;5043389;28;20441;-82
2021/10/04 02:22:30;;;;;;;390.50;368.70;;;12.60;99.90;;;;;;5061003;28;20624;-82
2021/10/04 02:24:56;;;;;;;390.27;368.63;;;12.50;99.90;;;;;;5042728;28;20442;-81
2021/10/04 02:27:22;;;;;;;347.73;327.77;;;12.50;99.90;;;;;;5063424;28;20181;-82
2021/10/04 02:29:47;;;;;;;324.50;305.40;;;12.50;99.90;;;;;;5064900;28;20240;-82
2021/10/04 02:32:13;;;;;;;371.13;350.40;;;12.50;99.90;;;;;;5061360;28;20439;-81
2021/10/04 02:34:39;;;;;;;371.33;350.83;;;12.50;99.90;;;;;;5064966;28;20161;-81
2021/10/04 02:37:05;;;;;;;316.97;297.73;;;12.50;99.90;;;;;;5064556;28;20187;-81
2021/10/04 02:39:30;;;;;;;362.33;341.87;;;12.50;99.90;;;;;;5064530;28;20187;-83
2021/10/04 02:41:56;;;;;;;373.07;352.07;;;12.50;99.90;;;;;;5046713;28;20196;-82
2021/10/04 02:44:22;;;;;;;374.17;352.97;;;12.60;99.90;;;;;;5048000;28;20184;-82
2021/10/04 02:46:47;;;;;;;382.10;360.63;;;12.60;99.90;;;;;;5047834;28;20608;-82
2021/10/04 02:49:13;;;;;;;383.53;362.10;;;12.60;99.90;;;;;;5065072;28;20161;-82
2021/10/04 02:51:39;;;;;;;380.80;360.13;;;12.60;99.90;;;;;;5047670;28;20195;-82
2021/10/04 02:54:05;;;;;;;418.97;396.27;;;12.60;99.90;;;;;;5048135;28;20168;-82
2021/10/04 02:56:31;;;;;;;433.13;409.83;;;12.60;99.90;;;;;;5046980;28;20180;-82
2021/10/04 02:58:56;;;;;;;389.73;367.73;;;12.60;99.90;;;;;;5065143;28;20464;-81
2021/10/04 03:01:22;;;;;;;418.47;395.77;;;12.60;99.90;;;;;;5065054;28;20180;-82
2021/10/04 03:03:48;;;;;;;393.40;371.53;;;12.60;99.90;;;;;;5065211;28;20168;-82
2021/10/04 03:06:13;;;;;;;402.60;380.07;;;12.60;99.90;;;;;;5064319;28;20453;-81
2021/10/04 03:08:39;;;;;;;366.00;344.90;;;12.50;99.90;;;;;;5065546;28;20192;-82
2021/10/04 03:11:05;;;;;;;396.50;374.67;;;12.50;99.90;;;;;;5065030;28;20175;-81
2021/10/04 03:13:31;;;;;;;417.37;394.27;;;12.50;99.90;;;;;;5064707;28;20425;-82
2021/10/04 03:15:56;;;;;;;415.80;393.03;;;12.60;99.90;;;;;;5047204;28;20521;-82
2021/10/04 03:18:22;;;;;;;364.10;343.80;;;12.50;99.90;;;;;;5065250;28;20180;-82
2021/10/04 03:20:48;;;;;;;422.30;399.23;;;12.50;99.90;;;;;;5065769;28;20195;-82
2021/10/04 03:23:13;;;;;;;358.53;338.30;;;12.50;99.90;;;;;;5065408;28;20191;-82
2021/10/04 03:25:39;;;;;;;367.33;347.20;;;12.50;99.90;;;;;;5065287;28;20223;-82
2021/10/04 03:28:05;;;;;;;394.03;372.33;;;12.50;99.90;;;;;;5064727;28;20192;-82
2021/10/04 03:30:33;;;;;;;384.92;363.83;;;12.50;99.90;;;;;;5064938;28;20575;-82
2021/10/04 03:33:02;;;;;;;431.42;408.00;;;12.50;99.90;;;;;;5064261;28;20156;-82
2021/10/04 03:35:28;;;;;;;422.50;399.53;;;12.60;99.90;;;;;;5063561;28;20164;-82
2021/10/04 03:37:54;;;;;;;431.20;407.73;;;12.60;99.90;;;;;;5063816;28;20434;-82
2021/10/04 03:40:20;;;;;;;371.20;349.95;;;12.50;99.90;;;;;;5064022;28;20254;-82
2021/10/04 03:42:47;;;;;;;354.58;334.48;;;12.50;99.90;;;;;;5064330;28;20528;-82
2021/10/04 03:45:13;;;;;;;381.47;359.83;;;12.50;99.90;;;;;;5063522;28;20194;-82
2021/10/04 03:47:40;;;;;;;447.60;423.60;;;12.50;99.90;;;;;;5063675;28;20775;-82
2021/10/04 03:50:08;;;;;;;435.07;411.63;;;12.50;99.90;;;;;;5063574;28;20403;-81
2021/10/04 03:52:34;;;;;;;424.73;401.10;;;12.50;99.90;;;;;;5045376;28;20934;-81
2021/10/04 03:55:00;;;;;;;393.90;372.70;;;12.50;99.90;;;;;;5060076;28;20403;-81
2021/10/04 03:57:26;;;;;;;394.90;372.33;;;12.50;99.90;;;;;;5059272;28;20426;-83
2021/10/04 03:59:52;;;;;;;464.50;439.50;;;12.50;99.90;;;;;;5058313;28;20419;-83
2021/10/04 04:02:17;;;;;;;467.23;442.43;;;12.50;99.90;;;;;;5060445;28;20403;-84
2021/10/04 04:04:43;;;;;;;466.23;440.73;;;12.50;99.90;;;;;;5060060;28;20180;-84
2021/10/04 04:07:09;;;;;;;424.43;401.50;;;12.60;99.90;;;;;;5063630;28;20188;-84
2021/10/04 04:09:35;;;;;;;428.60;404.40;;;12.60;99.90;;;;;;5044837;28;20243;-84
2021/10/04 04:12:01;;;;;;;445.10;419.80;;;12.60;99.90;;;;;;5063116;28;20222;-84
2021/10/04 04:14:26;;;;;;;440.17;416.23;;;12.50;99.90;;;;;;5062917;28;20809;-82
2021/10/04 04:16:52;;;;;;;460.57;435.53;;;12.60;99.90;;;;;;5063116;28;20541;-82
2021/10/04 04:19:18;;;;;;;418.30;395.57;;;12.60;99.90;;;;;;5062318;28;20172;-82
2021/10/04 04:21:43;;;;;;;375.23;353.93;;;12.60;99.90;;;;;;5062418;28;20171;-81
2021/10/04 04:24:16;;;;;;;394.30;372.87;;;12.50;99.90;;;;;;5062189;28;20164;-82
2021/10/04 04:26:43;;;;;;;374.87;353.63;;;12.50;99.90;;;;;;5045579;28;20149;-82
2021/10/04 04:29:09;;;;;;;382.67;360.97;;;12.50;99.90;;;;;;5062413;28;20398;-82
2021/10/04 04:31:34;;;;;;;354.63;334.77;;;12.50;99.90;;;;;;5062499;28;20922;-82
2021/10/04 04:34:00;;;;;;;326.30;307.73;;;12.50;99.90;;;;;;5061697;28;20164;-82
2021/10/04 04:36:26;;;;;;;373.43;352.20;;;12.50;99.90;;;;;;5061863;28;20168;-82
2021/10/04 04:38:51;;;;;;;416.43;393.43;;;12.50;99.90;;;;;;5043820;28;20199;-82
2021/10/04 04:41:18;;;;;;;387.73;366.40;;;12.60;99.90;;;;;;5044035;28;20168;-82
2021/10/04 04:43:45;;;;;;;378.55;357.25;;;12.50;99.90;;;;;;5061628;28;20160;-82
2021/10/04 04:46:11;;;;;;;374.20;353.67;;;12.50;99.90;;;;;;5060930;28;20186;-83
2021/10/04 04:48:36;;;;;;;379.15;358.65;;;12.50;99.90;;;;;;5060866;28;20421;-84
2021/10/04 04:51:02;;;;;;;388.73;367.73;;;12.40;99.90;;;;;;5043018;28;20164;-83
2021/10/04 04:53:28;;;;;;;316.10;297.87;;;12.40;99.90;;;;;;5061538;28;20161;-83
2021/10/04 04:55:54;;;;;;;339.30;320.13;;;12.40;99.90;;;;;;5061235;28;20402;-84
2021/10/04 04:58:19;;;;;;;341.40;322.10;;;12.40;99.90;;;;;;5058582;28;20192;-84
2021/10/04 05:00:45;;;;;;;367.60;347.57;;;12.50;99.90;;;;;;5060707;28;20204;-81
2021/10/04 05:03:11;;;;;;;361.03;341.17;;;12.50;99.90;;;;;;5061912;28;20574;-81
2021/10/04 05:05:36;;;;;;;364.33;344.20;;;12.50;99.90;;;;;;5057712;28;20189;-81
2021/10/04 05:08:03;;;;;;;354.07;334.17;;;12.50;99.90;;;;;;5061283;28;20189;-81
2021/10/04 05:10:28;;;;;;;374.07;353.87;;;12.50;99.90;;;;;;5061245;28;20395;-81
2021/10/04 05:12:54;;;;;;;377.10;356.70;;;12.50;99.90;;;;;;5061712;28;20424;-81
2021/10/04 05:15:20;;;;;;;324.60;306.00;;;12.50;99.90;;;;;;5061736;28;20164;-81
2021/10/04 05:17:46;;;;;;;332.00;312.90;;;12.50;99.90;;;;;;5057916;28;20180;-81
2021/10/04 05:20:12;;;;;;;376.23;355.60;;;12.50;99.90;;;;;;5043679;28;21001;-81
2021/10/04 05:22:38;;;;;;;310.90;292.70;;;12.50;99.90;;;;;;5062148;28;20165;-82
2021/10/04 05:25:06;;;;;;;395.43;374.23;;;12.50;99.90;;;;;;5061650;28;20801;-82
2021/10/04 05:27:32;;;;;;;314.97;296.87;;;12.50;99.90;;;;;;5061762;28;20415;-82
2021/10/04 05:29:57;;;;;;;373.40;352.40;;;12.50;99.90;;;;;;5043020;28;20740;-81
2021/10/04 05:32:24;;;;;;;352.90;333.30;;;12.60;99.90;;;;;;5040349;28;20410;-82
2021/10/04 05:34:49;;;;;;;378.47;358.00;;;12.50;99.90;;;;;;5058055;28;20688;-81
2021/10/04 05:37:15;;;;;;;326.30;307.47;;;12.50;99.90;;;;;;5059475;28;20458;-81
2021/10/04 05:39:41;;;;;;;356.23;336.07;;;12.50;99.90;;;;;;5040987;28;20207;-81
2021/10/04 05:42:07;;;;;;;366.50;346.27;;;12.50;99.90;;;;;;5061265;28;20472;-81
2021/10/04 05:44:33;;;;;;;358.80;339.07;;;12.50;99.90;;;;;;5056216;28;20259;-80
2021/10/04 05:46:59;;;;;;;366.67;346.30;;;12.50;99.90;;;;;;5035989;28;20458;-80
2021/10/04 05:49:24;;;;;;;385.20;364.10;;;12.60;99.90;;;;;;5055417;28;20437;-81
2021/10/04 05:51:50;;;;;;;375.27;354.83;;;12.60;99.90;;;;;;5057543;28;20651;-81
2021/10/04 05:59:11;;;;;;;365.67;345.15;;;12.60;99.90;;;;;;5035104;28;20208;-84
2021/10/04 06:01:37;;;;;;;379.60;359.13;;;12.60;99.90;;;;;;5039950;28;20532;-84
2021/10/04 06:04:03;;;;;;;371.23;350.63;;;12.60;99.90;;;;;;5022182;28;20161;-84
2021/10/04 06:06:28;;;;;;;351.00;331.57;;;12.60;99.90;;;;;;5040886;28;20229;-84
2021/10/04 06:08:56;;;;;;;345.07;325.77;;;12.60;99.90;;;;;;5022337;28;20177;-84
2021/10/04 06:11:22;;;;;;;381.17;360.50;;;12.70;99.90;;;;;;5041617;28;20185;-83
2021/10/04 06:13:49;;;;;;;357.10;337.40;;;12.70;99.90;;;;;;5043025;28;20400;-84
2021/10/04 06:16:14;;;;;;;330.40;311.48;;;12.70;99.90;;;;;;5041827;28;20403;-84
2021/10/04 06:18:40;;;;;;;368.83;348.67;;;12.70;99.90;;;;;;5042693;28;20723;-83
2021/10/04 06:21:06;;;;;;;326.77;307.87;;;12.70;99.90;;;;;;5043815;28;20228;-83
2021/10/04 06:23:32;;;;;;;346.50;326.90;;;12.70;99.90;;;;;;5042163;28;20688;-83
2021/10/04 06:25:57;;;;;;;324.13;305.03;;;12.70;99.90;;;;;;5040827;28;20220;-84
2021/10/04 06:28:23;;;;;;;317.30;298.50;;;12.70;99.90;;;;;;5039188;28;20489;-83
2021/10/04 06:30:49;;;;;;;347.07;327.93;;;12.70;99.90;;;;;;5039336;28;20157;-83
2021/10/04 06:33:14;;;;;;;366.33;346.13;;;12.70;99.90;;;;;;5039609;28;20169;-83
2021/10/04 06:35:40;;;;;;;336.97;317.70;;;12.80;99.90;;;;;;5039699;28;20161;-84
2021/10/04 06:38:06;;;;;;;341.83;322.27;;;12.90;99.90;;;;;;5041430;28;20189;-84
2021/10/04 06:40:32;;;;;;;329.07;310.27;;;12.90;99.90;;;;;;5041650;28;20245;-84
2021/10/04 06:42:57;;;;;;;307.13;288.10;;;12.90;99.90;;;;;;5023019;28;20652;-83
2021/10/04 06:45:23;;;;;;;337.73;319.10;;;12.90;99.90;;;;;;5024015;28;20436;-84
2021/10/04 06:47:48;;;;;;;339.43;320.23;;;12.90;99.90;;;;;;5041785;28;20177;-84
2021/10/04 06:50:14;;;;;;;319.27;300.80;;;12.90;99.90;;;;;;5021609;28;20542;-83
2021/10/04 06:52:43;;;;;;;331.27;312.50;;;13.00;99.90;;;;;;5039817;28;20173;-84
2021/10/04 06:55:16;;;;;;;342.83;323.20;;;13.10;99.90;;;;;;5041713;28;20161;-84
2021/10/04 06:57:41;;;;;;;333.97;314.77;;;13.10;99.90;;;;;;5041429;28;20444;-83
2021/10/04 07:00:11;;;;;;;380.80;360.10;;;13.20;99.90;;;;;;5045864;23;20560;-80
2021/10/04 07:02:37;;;;;;;395.00;372.97;;;13.30;99.90;;;;;;5059665;28;20153;-79
2021/10/04 07:05:05;;;;;;;369.93;349.30;;;13.30;99.90;;;;;;5040528;28;20965;-78
2021/10/04 07:07:30;;;;;;;337.23;318.07;;;13.40;99.90;;;;;;5040730;28;20435;-79
2021/10/04 07:09:56;;;;;;;382.47;361.47;;;13.50;99.90;;;;;;5058379;28;20457;-78
2021/10/04 07:12:22;;;;;;;350.43;330.30;;;13.50;99.90;;;;;;5039331;28;20177;-79
2021/10/04 07:14:48;;;;;;;407.80;385.60;;;13.50;99.90;;;;;;5040313;28;20192;-78
2021/10/04 07:17:13;;;;;;;437.33;413.67;;;13.60;99.90;;;;;;5039964;28;20423;-79
2021/10/04 07:19:39;;;;;;;449.87;424.63;;;13.70;99.90;;;;;;5040689;28;20168;-78
2021/10/04 07:22:05;;;;;;;445.50;421.20;;;13.70;99.90;;;;;;5057906;28;20259;-79
2021/10/04 07:24:33;;;;;;;446.67;421.47;;;13.80;99.90;;;;;;5057854;28;20295;-78
2021/10/04 07:27:00;;;;;;;455.83;430.27;;;13.80;99.90;;;;;;5057728;28;20671;-78
2021/10/04 07:29:26;;;;;;;454.93;429.17;;;13.80;99.90;;;;;;5039522;28;20422;-79
2021/10/04 07:31:52;;;;;;;459.37;433.67;;;13.80;99.90;;;;;;5058690;28;20395;-78
2021/10/04 07:34:17;;;;;;;387.50;364.57;;;13.80;99.90;;;;;;5057805;28;20235;-78
2021/10/04 07:36:43;;;;;;;383.57;360.77;;;13.90;99.90;;;;;;5057990;28;20167;-78
2021/10/04 07:39:09;;;;;;;375.63;352.43;;;13.90;99.90;;;;;;5039973;28;20160;-78
2021/10/04 07:41:36;;;;;;;288.60;269.83;;;13.80;99.90;;;;;;5057303;28;20160;-78
2021/10/04 07:44:02;;;;;;;313.73;293.73;;;13.90;99.90;;;;;;5039558;28;20408;-78
2021/10/04 07:46:27;;;;;;;321.93;301.57;;;13.90;99.90;;;;;;5039947;28;20512;-79
2021/10/04 07:48:53;;;;;;;282.17;263.60;;;13.90;99.90;;;;;;5057536;28;20423;-79
2021/10/04 07:51:19;;;;;;;263.27;245.33;;;14.00;99.90;;;;;;5057481;28;20165;-78
2021/10/04 07:53:46;;;;;;;247.97;230.77;;;13.90;99.90;;;;;;5057381;28;20156;-78
2021/10/04 07:56:12;;;;;;;202.07;187.10;;;14.00;99.90;;;;;;5039636;28;20255;-78
2021/10/04 07:58:37;;;;;;;158.47;145.00;;;14.00;99.90;;;;;;5057210;28;20520;-78
2021/10/04 08:01:03;;;;;;;141.60;128.87;;;14.10;99.90;;;;;;5057559;28;20274;-78
2021/10/04 08:03:28;;;;;;;171.17;157.37;;;14.20;99.90;;;;;;5057132;28;20505;-79
2021/10/04 08:05:54;;;;;;;143.37;130.80;;;14.30;99.90;;;;;;5057437;28;20640;-78
2021/10/04 08:08:20;;;;;;;159.30;145.30;;;14.30;99.90;;;;;;5056902;28;20652;-78
2021/10/04 08:10:46;;;;;;;129.47;117.10;;;14.30;99.90;;;;;;5039075;28;20169;-78
2021/10/04 08:13:11;;;;;;;123.17;111.53;;;14.50;99.90;;;;;;5056596;28;20165;-78
2021/10/04 08:15:40;;;;;;;128.23;116.27;;;14.70;99.90;;;;;;5038527;28;20176;-78
2021/10/04 08:18:06;;;;;;;147.87;135.50;;;14.70;99.90;;;;;;5038536;28;20833;-79
2021/10/04 08:20:32;;;;;;;155.30;142.13;;;14.80;99.90;;;;;;5056899;28;20448;-79
2021/10/04 08:22:58;;;;;;;146.93;134.23;;;14.90;99.90;;;;;;5039021;28;20407;-78
2021/10/04 08:25:24;;;;;;;229.10;213.77;;;14.70;99.90;;;;;;5056439;28;20477;-78
2021/10/04 08:27:50;;;;;;;244.07;228.80;;;14.90;99.90;;;;;;5038987;28;20181;-79
2021/10/04 08:30:15;;;;;;;252.90;237.43;;;14.70;99.90;;;;;;5057819;28;20160;-79
2021/10/04 08:32:41;;;;;;;238.13;222.10;;;14.80;99.90;;;;;;5058545;28;20890;-79
2021/10/04 08:35:08;;;;;;;245.10;229.30;;;14.90;99.90;;;;;;5040480;28;20197;-79
2021/10/04 08:37:35;;;;;;;234.83;219.43;;;14.90;99.90;;;;;;5058411;28;20189;-79
2021/10/04 08:40:05;;;;;;;229.53;214.43;;;15.00;99.90;;;;;;5040401;28;20408;-80
2021/10/04 08:42:31;;;;;;;223.67;208.90;;;14.90;99.90;;;;;;5040619;28;20407;-80
2021/10/04 08:44:58;;;;;;;234.53;218.93;;;15.10;99.90;;;;;;5040798;28;20446;-80
2021/10/04 08:47:24;;;;;;;204.80;190.03;;;15.20;99.90;;;;;;5057931;28;20510;-80
2021/10/04 08:49:51;;;;;;;208.43;193.37;;;15.20;99.90;;;;;;5058672;28;20400;-80
2021/10/04 08:52:18;;;;;;;185.00;170.83;;;15.30;99.90;;;;;;5039805;28;20456;-80
2021/10/04 08:54:44;;;;;;;168.03;154.10;;;15.30;99.90;;;;;;5040084;28;20403;-80
2021/10/04 08:57:11;;;;;;;167.77;153.97;;;15.50;99.90;;;;;;5040405;28;20439;-80
2021/10/04 08:59:37;;;;;;;152.33;139.10;;;15.60;99.90;;;;;;5040113;28;20422;-79
2021/10/04 09:02:30;;;;;;;183.00;168.83;;;15.60;99.90;;;;;;5039762;28;20411;-79
2021/10/04 09:05:12;;;;;;;176.60;162.53;;;15.50;99.90;;;;;;5039332;28;20854;-80
2021/10/04 09:07:49;;;;;;;156.87;143.47;;;15.50;99.90;;;;;;5039501;28;20424;-78
2021/10/04 09:10:18;;;;;;;165.93;152.30;;;15.50;99.90;;;;;;5057016;28;20383;-79
2021/10/04 09:12:58;;;;;;;159.77;146.17;;;15.50;99.90;;;;;;5057288;28;20438;-79
2021/10/04 09:15:31;;;;;;;170.87;157.07;;;15.50;99.90;;;;;;5057191;28;20409;-78
2021/10/04 09:18:01;;;;;;;147.30;134.43;;;15.60;99.90;;;;;;5038636;28;20455;-78
2021/10/04 09:20:50;;;;;;;116.03;104.60;;;15.70;99.90;;;;;;5056577;28;20395;-79
2021/10/04 09:23:48;;;;;;;110.63;99.40;;;15.60;99.90;;;;;;5057383;28;20385;-79
2021/10/04 09:26:26;;;;;;;130.97;118.63;;;15.40;99.90;;;;;;5038780;28;20442;-79
2021/10/04 09:29:06;;;;;;;119.77;108.13;;;15.20;99.90;;;;;;5056865;28;20926;-79
2021/10/04 09:31:35;;;;;;;137.83;125.53;;;15.30;99.90;;;;;;5057248;28;20400;-79
2021/10/04 09:34:16;;;;;;;152.70;139.60;;;15.40;99.90;;;;;;5056428;28;20403;-79
2021/10/04 09:36:46;;;;;;;123.10;111.43;;;15.60;99.90;;;;;;5037736;28;20426;-79
2021/10/04 09:39:15;;;;;;;143.57;130.90;;;15.60;99.90;;;;;;5038596;28;20434;-78
2021/10/04 09:42:04;;;;;;;137.73;125.30;;;15.60;99.90;;;;;;5056228;28;20461;-78
2021/10/04 09:44:54;;;;;;;136.43;124.07;;;15.50;99.90;;;;;;5037794;28;20416;-78
2021/10/04 09:47:25;;;;;;;153.00;140.00;;;15.50;99.90;;;;;;5038226;28;20967;-78
2021/10/04 09:50:00;;;;;;;145.77;132.87;;;15.70;99.90;;;;;;5055855;28;20408;-79
2021/10/04 09:52:38;;;;;;;87.93;65.17;;;15.70;99.90;;;;;;5056061;28;20459;-79
2021/10/04 09:55:41;;;;;;;88.50;63.03;;;15.80;99.90;;;;;;5039258;28;20889;-79
2021/10/04 09:58:16;;;;;;;99.90;88.13;;;15.80;99.90;;;;;;5056167;28;20513;-79
2021/10/04 10:00:55;;;;;;;121.27;109.10;;;15.70;99.90;;;;;;5055711;28;20423;-78
2021/10/04 10:03:23;;;;;;;114.53;103.27;;;15.80;99.90;;;;;;5055804;28;20488;-79
2021/10/04 10:05:53;;;;;;;94.20;79.67;;;16.00;99.90;;;;;;5037874;28;20450;-79
2021/10/04 10:08:21;;;;;;;80.93;44.90;;;16.10;99.90;;;;;;5037696;28;20432;-79
2021/10/04 10:10:48;;;;;;;83.37;51.87;;;16.30;99.90;;;;;;5037755;28;20418;-79
2021/10/04 10:13:16;;;;;;;77.00;35.93;;;16.50;99.90;;;;;;5055799;28;20409;-79
2021/10/04 10:16:13;;;;;;;77.30;32.97;;;16.50;99.90;;;;;;5056409;28;20766;-79
2021/10/04 10:18:50;;;;;;;72.57;24.20;;;16.50;99.90;;;;;;5037886;28;20453;-78
2021/10/04 10:21:19;;;;;;;71.90;19.40;;;16.60;99.90;;;;;;5055334;28;20421;-79
2021/10/04 10:23:52;;;;;;;71.10;20.60;;;16.70;99.90;;;;;;5056064;28;20893;-79
2021/10/04 10:26:41;;;;;;;72.00;20.00;;;16.60;99.90;;;;;;5056175;28;20465;-79
2021/10/04 10:29:10;;;;;;;71.07;21.37;;;16.80;99.90;;;;;;5055184;28;20393;-79
2021/10/04 10:31:55;;;;;;;100.70;89.73;;;17.10;99.90;;;;;;5055665;28;20399;-79
2021/10/04 10:34:26;;;;;;;123.13;111.23;;;17.30;99.90;;;;;;5056780;28;20399;-79
2021/10/04 10:37:01;;;;;;;122.33;111.03;;;17.50;99.90;;;;;;5037501;28;20952;-79
2021/10/04 10:39:38;;;;;;;98.53;88.10;;;17.70;99.90;;;;;;5037933;28;20435;-79
2021/10/04 10:42:15;;;;;;;111.33;100.03;;;17.50;99.90;;;;;;5055618;28;20949;-79
2021/10/04 10:44:59;;;;;;;95.67;78.23;;;17.40;99.90;;;;;;5037893;28;20464;-79
2021/10/04 10:47:36;;;;;;;88.17;58.67;;;17.50;99.90;;;;;;5056267;28;20419;-79
2021/10/04 10:50:17;;;;;;;78.17;39.03;;;17.60;99.90;;;;;;5058741;28;20837;-79
2021/10/04 10:53:02;;;;;;;74.67;20.47;;;17.60;99.90;;;;;;5059091;28;20386;-79
2021/10/04 10:55:34;;;;;;;72.50;24.37;;;17.70;99.90;;;;;;5058692;28;20905;-79
2021/10/04 10:58:00;;;;;;;80.40;27.87;;;17.90;99.90;;;;;;5059229;28;20958;-78
2021/10/04 11:00:59;;;;;;;73.50;26.97;;;18.00;99.90;;;;;;5040692;28;20510;-79
2021/10/04 11:03:26;;;;;;;74.70;30.90;;;18.00;98.00;;;;;;5058973;28;20383;-79
2021/10/04 11:05:54;;;;;;;79.03;39.63;;;18.20;99.90;;;;;;5059166;28;20447;-79
2021/10/04 11:08:26;;;;;;;73.70;29.80;;;18.20;96.00;;;;;;5040522;28;21003;-79
2021/10/04 11:10:52;;;;;;;76.27;33.27;;;17.90;97.70;;;;;;5059113;28;20383;-79
2021/10/04 11:13:35;;;;;;;83.27;32.77;;;17.80;99.40;;;;;;5058579;28;20427;-79
2021/10/04 11:16:09;;;;;;;76.37;36.20;;;17.50;99.90;;;;;;5058233;28;20172;-78
2021/10/04 11:18:40;;;;;;;71.70;23.10;;;17.50;99.90;;;;;;5040388;28;20438;-79
2021/10/04 11:21:10;;;;;;;71.57;22.00;;;17.40;98.80;;;;;;5058403;28;20538;-78
2021/10/04 11:23:44;;;;;;;73.30;26.13;;;17.30;98.00;;;;;;5039981;28;20422;-79
2021/10/04 11:26:14;;;;;;;118.57;106.83;;;17.60;99.40;;;;;;5058109;28;20450;-79
2021/10/04 11:28:44;;;;;;;81.10;51.37;;;17.60;94.20;;;;;;5040091;28;20517;-79
2021/10/04 11:31:12;;;;;;;86.83;56.23;;;17.50;96.90;;;;;;5040402;28;20461;-79
2021/10/04 11:33:50;;;;;;;113.57;102.67;;;17.60;95.70;;;;;;5058853;28;20480;-79
2021/10/04 11:36:18;;;;;;;141.33;128.87;;;17.70;93.60;;;;;;5058514;28;20387;-78
2021/10/04 11:38:52;;;;;;;122.00;110.27;;;17.60;92.60;;;;;;5040313;28;20431;-79
2021/10/04 11:41:23;;;;;;;135.80;123.73;;;17.90;93.00;;;;;;5058756;28;20961;-79
2021/10/04 11:43:51;;;;;;;96.53;84.63;;;18.10;91.30;;;;;;5058252;28;20403;-79
2021/10/04 11:46:19;;;;;;;97.97;69.23;;;18.30;83.30;;;;;;5057962;28;20941;-79
2021/10/04 11:48:45;;;;;;;86.17;57.73;;;18.40;87.20;;;;;;5058125;28;20427;-79
2021/10/04 11:51:26;;;;;;;93.67;53.80;;;18.40;84.50;;;;;;5058689;28;20797;-79
2021/10/04 11:53:54;;;;;;;95.67;72.00;;;18.70;90.00;;;;;;5040216;28;20926;-79
2021/10/04 11:56:20;;;;;;;84.03;50.83;;;18.60;79.60;;;;;;5058329;28;20766;-79
2021/10/04 11:58:58;;;;;;;109.80;98.90;;;18.40;85.30;;;;;;5039471;28;20432;-79
2021/10/04 12:01:30;;;;;;;105.53;94.93;;;18.60;79.90;;;;;;5057520;28;20425;-79
2021/10/04 12:04:05;;;;;;;100.10;89.57;;;18.50;80.10;;;;;;5057690;28;20399;-80
2021/10/04 12:06:32;;;;;;;120.10;108.53;;;18.60;83.00;;;;;;5039485;28;20470;-79
2021/10/04 12:08:59;;;;;;;93.77;72.13;;;18.60;84.60;;;;;;5057643;28;20400;-78
2021/10/04 12:11:26;;;;;;;98.27;87.80;;;18.80;86.60;;;;;;5057885;28;20399;-79
2021/10/04 12:13:52;;;;;;;130.30;118.70;;;18.80;68.00;;;;;;5057803;28;20403;-79
2021/10/04 12:16:20;;;;;;;99.67;89.10;;;19.10;74.40;;;;;;5057582;28;20784;-79
2021/10/04 12:18:52;;;;;;;179.20;165.10;;;19.50;73.50;;;;;;5039351;28;20426;-79
2021/10/04 12:21:17;;;;;;;225.13;209.53;;;19.70;66.10;;;;;;5039575;28;20489;-79